Time;durP1;ratioP1;P1;durP2;ratioP2;P2;SDS_P1;SDS_P2;PMS_P1;PMS_P2;Temp;Humidity;BMP_temperature;BMP_pressure;BME280_temperature;BME280_humidity;BME280_pressure;Samples;Min_cycle;Max_cycle;Signal;HPM_P1;HPM_P2
2022/03/20 00:01:02;;;;;;;16.00;3.70;;;6.40;99.90;;;;;;4955011;29;20035;-82
2022/03/20 00:03:33;;;;;;;15.70;3.05;;;6.40;99.90;;;;;;4955054;29;20118;-81
2022/03/20 00:05:59;;;;;;;19.45;3.55;;;6.40;99.90;;;;;;4955071;28;20027;-82
2022/03/20 00:08:25;;;;;;;18.63;3.70;;;6.40;99.90;;;;;;4954974;28;20050;-82
2022/03/20 00:10:54;;;;;;;20.80;3.30;;;6.40;99.90;;;;;;4955042;28;20462;-81
2022/03/20 00:13:21;;;;;;;13.25;3.60;;;6.40;99.90;;;;;;4954812;28;20086;-81
2022/03/20 00:15:50;;;;;;;15.88;3.13;;;6.40;99.90;;;;;;4954561;28;20031;-81
2022/03/20 00:18:20;;;;;;;11.50;2.70;;;6.40;99.90;;;;;;4954710;28;20514;-81
2022/03/20 00:20:51;;;;;;;21.13;3.40;;;6.40;99.90;;;;;;4954887;28;20035;-81
2022/03/20 00:23:17;;;;;;;15.90;3.25;;;6.40;99.90;;;;;;4954619;28;20023;-81
2022/03/20 00:25:45;;;;;;;19.02;3.20;;;6.40;99.90;;;;;;4954927;28;20050;-88
2022/03/20 00:28:15;;;;;;;17.35;3.25;;;6.40;99.90;;;;;;4955024;28;20034;-85
2022/03/20 00:30:42;;;;;;;18.45;3.80;;;6.30;99.90;;;;;;4954772;28;20027;-83
2022/03/20 00:33:09;;;;;;;17.88;3.25;;;6.40;99.90;;;;;;4954852;28;20114;-84
2022/03/20 00:35:35;;;;;;;19.55;3.85;;;6.30;99.90;;;;;;4954333;28;20023;-84
2022/03/20 00:38:01;;;;;;;14.65;3.28;;;6.30;99.90;;;;;;4954304;28;20063;-83
2022/03/20 00:40:27;;;;;;;15.80;3.00;;;6.30;99.90;;;;;;4954418;29;20360;-84
2022/03/20 00:42:53;;;;;;;14.15;3.15;;;6.30;99.90;;;;;;4954460;28;20090;-85
2022/03/20 00:45:19;;;;;;;14.48;3.45;;;6.30;99.90;;;;;;4954827;28;20034;-84
2022/03/20 00:47:45;;;;;;;17.20;3.80;;;6.30;99.90;;;;;;4954299;28;20035;-84
2022/03/20 00:50:11;;;;;;;14.13;3.00;;;6.20;99.90;;;;;;4954530;28;20050;-84
2022/03/20 00:52:37;;;;;;;15.10;3.22;;;6.20;99.90;;;;;;4954327;29;20023;-85
2022/03/20 00:55:03;;;;;;;15.77;3.00;;;6.20;99.90;;;;;;4954346;29;20027;-85
2022/03/20 00:57:29;;;;;;;17.48;3.30;;;6.30;99.90;;;;;;4954076;28;20042;-84
2022/03/20 00:59:54;;;;;;;25.40;3.88;;;6.20;99.90;;;;;;4954250;29;20020;-84
2022/03/20 01:02:20;;;;;;;25.65;5.07;;;6.30;99.90;;;;;;4954256;28;20031;-85
2022/03/20 01:04:46;;;;;;;15.95;4.13;;;6.30;99.90;;;;;;4954000;28;20471;-85
2022/03/20 01:07:12;;;;;;;11.80;2.75;;;6.30;99.90;;;;;;4954150;28;20069;-86
2022/03/20 01:09:38;;;;;;;16.35;2.65;;;6.30;99.90;;;;;;4954261;28;20114;-87
2022/03/20 01:12:05;;;;;;;14.80;3.42;;;6.30;99.90;;;;;;4954753;29;20443;-86
2022/03/20 01:14:30;;;;;;;14.32;3.15;;;6.20;99.90;;;;;;4954576;29;20070;-88
2022/03/20 01:16:57;;;;;;;20.77;3.33;;;6.30;99.90;;;;;;4954607;28;20043;-86
2022/03/20 01:19:24;;;;;;;18.15;3.58;;;6.30;99.90;;;;;;4953974;28;20034;-84
2022/03/20 01:21:52;;;;;;;12.30;2.58;;;6.30;99.90;;;;;;4953825;28;20027;-82
2022/03/20 01:24:17;;;;;;;13.85;2.97;;;6.30;99.90;;;;;;4953710;28;20038;-81
2022/03/20 01:26:43;;;;;;;16.52;3.47;;;6.20;99.90;;;;;;4953681;28;20027;-81
2022/03/20 01:29:09;;;;;;;13.10;2.97;;;6.20;99.90;;;;;;4953823;29;20110;-81
2022/03/20 01:31:36;;;;;;;17.27;3.13;;;6.20;99.90;;;;;;4953731;28;20019;-82
2022/03/20 01:34:03;;;;;;;13.52;3.22;;;6.20;99.90;;;;;;4952485;29;20066;-83
2022/03/20 01:36:29;;;;;;;13.10;3.17;;;6.10;99.90;;;;;;4953550;28;20057;-82
2022/03/20 01:38:55;;;;;;;13.98;2.78;;;6.10;99.90;;;;;;4953429;28;20491;-82
2022/03/20 01:41:22;;;;;;;16.70;2.55;;;6.10;99.90;;;;;;4953749;28;20035;-82
2022/03/20 01:43:51;;;;;;;12.27;3.30;;;6.10;99.90;;;;;;4953526;28;20487;-82
2022/03/20 01:46:17;;;;;;;16.20;3.83;;;6.10;99.90;;;;;;4953677;28;20027;-81
2022/03/20 01:48:42;;;;;;;16.92;3.83;;;6.10;99.90;;;;;;4956217;29;20644;-85
2022/03/20 01:51:10;;;;;;;14.95;2.95;;;6.10;99.90;;;;;;4957507;28;20028;-84
2022/03/20 01:53:36;;;;;;;22.00;3.78;;;6.10;99.90;;;;;;4957294;28;20108;-80
2022/03/20 01:56:02;;;;;;;21.38;3.33;;;6.10;99.90;;;;;;4957189;28;20080;-82
2022/03/20 01:58:28;;;;;;;21.10;4.15;;;6.00;99.90;;;;;;4957270;28;20065;-82
2022/03/20 02:00:54;;;;;;;19.17;3.33;;;6.00;99.90;;;;;;4957164;29;20024;-84
2022/03/20 02:03:19;;;;;;;18.52;4.80;;;6.00;99.90;;;;;;4957890;29;20034;-87
2022/03/20 02:05:45;;;;;;;16.15;3.42;;;6.00;99.90;;;;;;4958266;29;20024;-87
2022/03/20 02:08:11;;;;;;;16.58;3.25;;;6.00;99.90;;;;;;4958052;29;20474;-87
2022/03/20 02:10:37;;;;;;;19.40;3.60;;;6.00;99.90;;;;;;4957995;28;20043;-87
2022/03/20 02:13:07;;;;;;;14.65;3.15;;;6.00;99.90;;;;;;4958227;28;20133;-88
2022/03/20 02:15:33;;;;;;;15.65;2.75;;;6.00;99.90;;;;;;4957687;28;20023;-87
2022/03/20 02:17:59;;;;;;;20.77;3.33;;;6.00;99.90;;;;;;4958016;28;20047;-87
2022/03/20 02:20:29;;;;;;;15.27;2.92;;;6.00;99.90;;;;;;4957450;29;20046;-82
2022/03/20 02:22:55;;;;;;;9.43;2.53;;;6.00;99.90;;;;;;4957031;29;20038;-81
2022/03/20 02:54:25;;;;;;;20.92;3.10;;;5.80;99.90;;;;;;4955158;29;20048;-81
2022/03/20 02:56:52;;;;;;;20.25;3.03;;;5.90;99.90;;;;;;4957052;28;20442;-83
2022/03/20 02:59:18;;;;;;;16.05;3.22;;;5.90;99.90;;;;;;4955105;28;20025;-83
2022/03/20 03:01:44;;;;;;;16.27;2.67;;;5.90;99.90;;;;;;4956113;28;20027;-82
2022/03/20 03:37:50;;;;;;;18.23;3.72;;;5.90;99.90;;;;;;5438625;23;20112;-79
2022/03/20 03:40:15;;;;;;;14.27;2.78;;;5.90;99.90;;;;;;4974674;28;20031;-82
2022/03/20 03:42:42;;;;;;;15.35;2.60;;;5.90;99.90;;;;;;4974880;28;20027;-82
2022/03/20 03:45:08;;;;;;;12.52;3.08;;;5.90;99.90;;;;;;4974989;28;20031;-86
2022/03/20 03:47:34;;;;;;;17.63;3.45;;;5.90;99.90;;;;;;4974876;28;20062;-87
2022/03/20 03:50:00;;;;;;;17.88;3.22;;;5.90;99.90;;;;;;4974844;28;20033;-87
2022/03/20 03:52:26;;;;;;;13.55;2.83;;;5.90;99.90;;;;;;4974693;28;20019;-86
2022/03/20 03:54:51;;;;;;;15.13;3.08;;;5.90;99.90;;;;;;4974644;28;20027;-87
2022/03/20 03:57:21;;;;;;;14.82;3.30;;;5.80;99.90;;;;;;4974667;28;20038;-87
2022/03/20 03:59:47;;;;;;;14.57;3.00;;;5.80;99.90;;;;;;4974571;28;20019;-81
2022/03/20 04:02:14;;;;;;;18.35;3.30;;;5.80;99.90;;;;;;4974504;28;20034;-79
2022/03/20 04:04:45;;;;;;;14.75;2.95;;;5.80;99.90;;;;;;4974390;28;20490;-79
2022/03/20 04:07:12;;;;;;;16.83;3.72;;;5.80;99.90;;;;;;4974195;28;20023;-79
2022/03/20 04:09:38;;;;;;;18.10;2.85;;;5.80;99.90;;;;;;4974202;28;20102;-78
2022/03/20 04:12:05;;;;;;;14.60;2.88;;;5.80;99.90;;;;;;4974082;28;20068;-78
2022/03/20 04:14:32;;;;;;;12.63;2.90;;;5.80;99.90;;;;;;4974330;28;20106;-78
2022/03/20 04:16:58;;;;;;;16.73;2.78;;;5.80;99.90;;;;;;4974243;28;20433;-80
2022/03/20 04:19:24;;;;;;;15.18;3.15;;;5.80;99.90;;;;;;4973883;28;20029;-79
2022/03/20 04:21:49;;;;;;;14.48;2.70;;;5.80;99.90;;;;;;4974286;28;20115;-80
2022/03/20 04:24:15;;;;;;;13.02;3.22;;;5.80;99.90;;;;;;4973739;28;20027;-79
2022/03/20 04:26:41;;;;;;;11.48;2.45;;;5.80;99.90;;;;;;4973981;28;20031;-79
2022/03/20 04:29:07;;;;;;;13.40;3.20;;;5.80;99.90;;;;;;4973844;28;20022;-80
2022/03/20 04:31:32;;;;;;;14.85;4.10;;;5.80;99.90;;;;;;4974216;28;20482;-81
2022/03/20 04:33:58;;;;;;;17.73;2.85;;;5.80;99.90;;;;;;4974059;28;20026;-84
2022/03/20 04:36:27;;;;;;;9.32;2.78;;;5.80;99.90;;;;;;4973765;28;20065;-78
2022/03/20 04:38:55;;;;;;;13.95;3.03;;;5.80;99.90;;;;;;4973498;28;20137;-76
2022/03/20 04:41:21;;;;;;;14.00;3.00;;;5.80;99.90;;;;;;4973547;28;20478;-76
2022/03/20 04:43:48;;;;;;;13.57;2.72;;;5.80;99.90;;;;;;4973866;28;20367;-76
2022/03/20 04:46:14;;;;;;;14.77;2.42;;;5.80;99.90;;;;;;4973505;28;20099;-76
2022/03/20 04:59:37;;;;;;;15.38;3.00;;;5.90;99.90;;;;;;4973560;28;20074;-77
2022/03/20 05:02:04;;;;;;;13.98;2.90;;;5.80;99.90;;;;;;4973307;28;20027;-78
2022/03/20 05:04:29;;;;;;;11.27;2.88;;;5.80;99.90;;;;;;4973522;28;20030;-78
2022/03/20 05:06:55;;;;;;;13.00;2.78;;;5.80;99.90;;;;;;4973382;28;20125;-78
2022/03/20 05:14:50;;;;;;;14.70;2.80;;;5.70;99.90;;;;;;4973355;28;20053;-75
2022/03/20 05:17:16;;;;;;;12.38;2.72;;;5.80;99.90;;;;;;4972990;28;20042;-75
2022/03/20 05:19:42;;;;;;;17.35;4.35;;;5.70;99.90;;;;;;4973403;28;20030;-75
2022/03/20 05:22:12;;;;;;;22.88;3.63;;;5.70;99.90;;;;;;4972334;28;20035;-75
2022/03/20 05:24:39;;;;;;;9.57;1.92;;;5.70;99.90;;;;;;4973080;28;20065;-74
2022/03/20 05:27:06;;;;;;;10.05;2.65;;;5.70;99.90;;;;;;4972937;28;20581;-76
2022/03/20 05:29:32;;;;;;;15.45;2.78;;;5.70;99.90;;;;;;4973325;28;20023;-75
2022/03/20 05:32:00;;;;;;;13.85;3.13;;;5.80;99.90;;;;;;4973113;28;20031;-70
2022/03/20 05:34:26;;;;;;;10.95;2.88;;;5.70;99.90;;;;;;4973087;28;20042;-71
2022/03/20 05:36:52;;;;;;;15.15;2.67;;;5.70;99.90;;;;;;4972707;28;20387;-74
2022/03/20 05:39:18;;;;;;;14.00;2.70;;;5.80;99.90;;;;;;4972898;28;20042;-73
2022/03/20 05:41:47;;;;;;;12.95;2.58;;;5.80;99.90;;;;;;4973066;28;20031;-75
2022/03/20 05:44:13;;;;;;;16.50;3.08;;;6.00;99.90;;;;;;4972596;28;20027;-73
2022/03/20 05:46:40;;;;;;;18.60;3.03;;;5.90;99.90;;;;;;4972887;28;20030;-74
2022/03/20 05:49:06;;;;;;;14.40;2.75;;;5.90;99.90;;;;;;4971510;28;20031;-76
2022/03/20 05:51:34;;;;;;;85.57;30.27;;;5.80;99.90;;;;;;4963448;28;20058;-78
2022/03/20 05:54:00;;;;;;;38.28;15.07;;;5.80;99.90;;;;;;4962610;28;20058;-74
2022/03/20 05:59:10;;;;;;;60.60;24.67;;;5.80;99.90;;;;;;4972283;28;20394;-74
2022/03/20 06:01:36;;;;;;;20.33;7.68;;;5.80;99.90;;;;;;4969727;28;20022;-72
2022/03/20 06:04:03;;;;;;;12.65;3.92;;;5.70;99.90;;;;;;4960946;28;20039;-70
2022/03/20 06:06:33;;;;;;;13.90;3.28;;;5.80;99.90;;;;;;4971858;28;20057;-70
2022/03/20 06:08:58;;;;;;;13.57;2.60;;;5.80;99.90;;;;;;4972028;28;20490;-70
2022/03/20 06:11:24;;;;;;;13.60;2.75;;;5.80;99.90;;;;;;4972280;28;20055;-70
2022/03/20 06:13:50;;;;;;;10.93;2.72;;;5.80;99.90;;;;;;4969665;28;20026;-70
2022/03/20 06:16:17;;;;;;;12.63;3.13;;;5.80;99.90;;;;;;4970601;28;20042;-70
2022/03/20 06:18:44;;;;;;;12.77;2.80;;;5.80;99.90;;;;;;4970935;28;20030;-81
2022/03/20 06:21:11;;;;;;;14.45;2.42;;;5.80;99.90;;;;;;4972181;28;20030;-79
2022/03/20 06:23:37;;;;;;;9.55;2.92;;;5.90;99.90;;;;;;4971977;28;20479;-75
2022/03/20 06:26:04;;;;;;;11.68;2.50;;;5.90;99.90;;;;;;4972438;28;20157;-75
2022/03/20 06:28:30;;;;;;;15.23;2.55;;;5.90;99.90;;;;;;4972730;28;20106;-73
2022/03/20 06:30:56;;;;;;;44.55;16.10;;;5.90;99.90;;;;;;4972648;28;20019;-73
2022/03/20 06:33:25;;;;;;;147.38;57.95;;;5.90;99.90;;;;;;4973882;28;20031;-73
2022/03/20 06:35:52;;;;;;;26.35;7.38;;;6.00;99.90;;;;;;4976070;28;20030;-69
2022/03/20 06:38:18;;;;;;;16.85;3.55;;;6.00;99.90;;;;;;4975488;28;20055;-71
2022/03/20 06:40:44;;;;;;;12.43;3.00;;;6.00;99.90;;;;;;4975928;28;20069;-71
2022/03/20 06:43:10;;;;;;;11.35;2.55;;;6.10;99.90;;;;;;4975703;28;20434;-72
2022/03/20 06:45:36;;;;;;;13.50;2.65;;;6.10;99.90;;;;;;4975826;28;20059;-71
2022/03/20 06:48:02;;;;;;;9.13;2.47;;;6.20;99.90;;;;;;4975988;28;20410;-71
2022/03/20 06:50:28;;;;;;;11.07;3.17;;;6.30;99.90;;;;;;4975634;28;20130;-71
2022/03/20 06:52:54;;;;;;;10.13;2.67;;;6.40;99.90;;;;;;4975631;28;20031;-73
2022/03/20 06:55:20;;;;;;;9.60;3.20;;;6.60;99.90;;;;;;4975824;28;20030;-75
2022/03/20 06:57:46;;;;;;;14.10;3.13;;;6.70;99.90;;;;;;4975434;28;20042;-75
2022/03/20 07:00:14;;;;;;;11.43;2.50;;;6.70;99.90;;;;;;4975526;28;20026;-75
2022/03/20 07:02:40;;;;;;;17.45;2.80;;;6.80;99.90;;;;;;4974272;28;20074;-76
2022/03/20 07:05:06;;;;;;;17.40;2.65;;;6.80;99.90;;;;;;4975609;28;20067;-75
2022/03/20 07:07:34;;;;;;;11.40;2.55;;;6.90;99.90;;;;;;4975573;28;20035;-74
2022/03/20 07:10:00;;;;;;;9.30;2.30;;;7.00;99.90;;;;;;4975295;28;20538;-76
2022/03/20 07:12:26;;;;;;;5.43;1.90;;;7.10;99.90;;;;;;4975195;28;20613;-73
2022/03/20 07:14:53;;;;;;;10.30;2.40;;;7.20;99.90;;;;;;4975505;28;20043;-73
2022/03/20 07:17:20;;;;;;;11.57;2.17;;;7.80;99.90;;;;;;4974984;28;20494;-68
2022/03/20 07:19:45;;;;;;;9.43;2.13;;;8.00;99.90;;;;;;4975108;28;20470;-75
2022/03/20 07:22:13;;;;;;;36.75;17.50;;;8.10;99.90;;;;;;4975016;28;20033;-74
2022/03/20 07:24:41;;;;;;;21.30;7.57;;;8.00;99.90;;;;;;4975349;28;20031;-74
2022/03/20 07:29:52;;;;;;;13.73;2.60;;;7.80;99.90;;;;;;4975078;28;20107;-76
2022/03/20 07:32:18;;;;;;;8.80;2.30;;;7.80;99.90;;;;;;4974863;28;20034;-74
2022/03/20 07:34:45;;;;;;;9.50;2.35;;;7.80;99.90;;;;;;4974832;28;20027;-74
2022/03/20 07:37:16;;;;;;;10.32;2.50;;;7.80;99.90;;;;;;4974761;28;20179;-74
2022/03/20 07:39:46;;;;;;;8.00;2.08;;;7.80;99.90;;;;;;4975106;28;20023;-75
2022/03/20 07:42:13;;;;;;;13.25;2.40;;;7.90;99.90;;;;;;4970806;28;20038;-77
2022/03/20 07:44:39;;;;;;;12.18;2.35;;;7.90;99.90;;;;;;4954879;28;20074;-83
2022/03/20 07:47:08;;;;;;;9.35;2.33;;;8.00;99.90;;;;;;4955601;28;20459;-83
2022/03/20 07:49:36;;;;;;;11.20;2.63;;;8.00;99.90;;;;;;4955321;28;20019;-83
2022/03/20 07:52:04;;;;;;;10.02;2.30;;;8.10;99.20;;;;;;4955433;28;20059;-82
2022/03/20 07:54:29;;;;;;;9.20;2.10;;;8.10;97.80;;;;;;4955423;28;20035;-81
2022/03/20 07:56:55;;;;;;;12.40;2.63;;;8.20;97.60;;;;;;4955276;28;20402;-76
2022/03/20 07:59:21;;;;;;;10.98;2.45;;;8.20;96.80;;;;;;4955263;28;20062;-82
2022/03/20 08:01:47;;;;;;;6.93;2.30;;;8.30;96.70;;;;;;4955252;28;20026;-81
2022/03/20 08:04:13;;;;;;;9.75;2.40;;;8.40;99.60;;;;;;4955148;29;20058;-83
2022/03/20 08:06:39;;;;;;;6.95;2.05;;;8.50;97.10;;;;;;4955532;29;20028;-83
2022/03/20 08:09:05;;;;;;;10.13;2.20;;;8.50;95.70;;;;;;4967785;28;20026;-89
2022/03/20 08:11:31;;;;;;;8.30;1.80;;;8.50;95.20;;;;;;4972501;28;20102;-89
2022/03/20 08:13:57;;;;;;;13.02;2.80;;;8.60;94.30;;;;;;4973318;28;20102;-75
2022/03/20 08:16:26;;;;;;;8.52;2.08;;;8.60;93.50;;;;;;4973938;28;20034;-76
2022/03/20 08:18:56;;;;;;;11.52;2.20;;;8.60;93.80;;;;;;4974019;28;20019;-79
2022/03/20 08:21:21;;;;;;;;;;;8.70;93.10;;;;;;4974364;28;20027;-73
2022/03/20 08:23:47;;;;;;;11.90;2.33;;;8.80;94.30;;;;;;4974028;28;19933;-74
2022/03/20 08:26:14;;;;;;;10.07;2.47;;;8.90;92.80;;;;;;4973732;28;20023;-75
2022/03/20 08:28:41;;;;;;;13.30;2.95;;;8.90;92.70;;;;;;4973829;28;20113;-73
2022/03/20 08:31:08;;;;;;;10.43;2.05;;;8.90;92.30;;;;;;4973867;28;20026;-73
2022/03/20 08:33:33;;;;;;;5.85;2.20;;;8.90;91.60;;;;;;4973660;28;20023;-73
2022/03/20 08:36:01;;;;;;;13.77;2.45;;;8.90;91.30;;;;;;4955233;28;20086;-75
2022/03/20 08:38:27;;;;;;;8.25;2.30;;;8.90;90.80;;;;;;4970866;28;20050;-68
2022/03/20 08:40:53;;;;;;;11.10;2.03;;;8.90;92.70;;;;;;4973603;28;20034;-68
2022/03/20 08:43:19;;;;;;;9.95;2.78;;;9.20;99.90;;;;;;4973640;28;20628;-67
2022/03/20 08:45:44;;;;;;;13.40;2.05;;;9.50;99.90;;;;;;4973302;28;20023;-66
2022/03/20 08:48:11;;;;;;;7.75;2.33;;;9.70;99.90;;;;;;4973301;28;20033;-67
2022/03/20 08:50:37;;;;;;;9.10;1.95;;;9.90;99.90;;;;;;4975963;28;20100;-66
2022/03/20 08:53:03;;;;;;;6.78;2.15;;;10.00;96.30;;;;;;4973617;28;20022;-67
2022/03/20 08:55:33;;;;;;;9.82;2.17;;;10.10;95.10;;;;;;4973072;28;20631;-67
2022/03/20 08:57:59;;;;;;;16.05;2.30;;;10.10;94.40;;;;;;4971774;28;20043;-67
2022/03/20 09:00:25;;;;;;;5.28;1.88;;;10.20;94.40;;;;;;4972589;28;20021;-67
2022/03/20 09:02:52;;;;;;;6.95;1.88;;;10.30;90.60;;;;;;4972641;28;20471;-67
2022/03/20 09:05:18;;;;;;;8.32;2.38;;;10.20;87.00;;;;;;4972577;28;20023;-67
2022/03/20 09:07:46;;;;;;;8.55;2.35;;;10.10;84.70;;;;;;4972584;28;20054;-67
2022/03/20 09:10:14;;;;;;;9.35;2.40;;;10.00;83.10;;;;;;4972927;28;20026;-67
2022/03/20 09:12:42;;;;;;;12.88;2.05;;;9.90;87.70;;;;;;4972697;28;20082;-70
2022/03/20 09:15:12;;;;;;;7.22;1.90;;;10.00;84.50;;;;;;4957400;28;20015;-68
2022/03/20 09:20:32;;;;;;;6.40;2.20;;;10.20;82.00;;;;;;4972158;28;20329;-68
2022/03/20 09:22:58;;;;;;;6.78;1.98;;;10.20;81.90;;;;;;4973200;28;20022;-69
2022/03/20 09:25:24;;;;;;;8.25;2.05;;;10.30;82.70;;;;;;4973036;28;20023;-68
2022/03/20 09:27:51;;;;;;;6.13;2.13;;;10.40;81.50;;;;;;4973160;28;20027;-69
2022/03/20 09:30:18;;;;;;;9.27;2.15;;;10.50;82.40;;;;;;4972840;28;20486;-69
2022/03/20 09:32:44;;;;;;;11.75;2.35;;;10.50;79.20;;;;;;4973087;28;20029;-69
2022/03/20 09:35:11;;;;;;;7.20;1.90;;;10.40;79.10;;;;;;4973159;28;20113;-71
2022/03/20 09:37:38;;;;;;;16.30;8.05;;;10.50;79.50;;;;;;4972565;28;20054;-71
2022/03/20 09:40:05;;;;;;;24.60;12.73;;;10.40;77.70;;;;;;4973004;28;20371;-71
2022/03/20 09:42:31;;;;;;;28.05;12.70;;;10.40;77.40;;;;;;4971842;28;20474;-71
2022/03/20 09:44:57;;;;;;;10.25;4.15;;;10.40;77.00;;;;;;4971540;28;20085;-71
2022/03/20 09:47:26;;;;;;;22.67;12.05;;;10.30;77.30;;;;;;4973053;28;20030;-72
2022/03/20 09:49:53;;;;;;;11.25;3.78;;;10.40;78.50;;;;;;4972744;28;20031;-73
2022/03/20 09:52:19;;;;;;;14.60;5.00;;;10.80;87.70;;;;;;4973075;28;20031;-73
2022/03/20 09:54:46;;;;;;;11.32;3.17;;;10.80;78.50;;;;;;4972719;28;20482;-72
2022/03/20 09:57:12;;;;;;;13.93;6.40;;;10.70;74.80;;;;;;4971434;28;20483;-73
2022/03/20 09:59:39;;;;;;;11.55;3.85;;;10.60;74.80;;;;;;4972552;28;20034;-73
2022/03/20 10:02:10;;;;;;;10.07;3.45;;;10.50;74.40;;;;;;4972889;28;20030;-74
2022/03/20 10:05:05;;;;;;;7.45;2.70;;;10.50;74.00;;;;;;4972896;28;20034;-74
2022/03/20 10:07:39;;;;;;;9.25;3.20;;;10.50;73.10;;;;;;4973189;28;20080;-73
2022/03/20 10:10:07;;;;;;;9.80;4.13;;;10.50;72.80;;;;;;4976665;28;20125;-74
2022/03/20 10:12:35;;;;;;;10.82;2.63;;;10.50;72.80;;;;;;4976366;28;20029;-75
2022/03/20 10:15:02;;;;;;;20.92;5.97;;;10.50;72.90;;;;;;4976310;28;20506;-74
2022/03/20 10:17:29;;;;;;;10.23;2.80;;;10.50;73.40;;;;;;4976171;28;20129;-74
2022/03/20 10:20:12;;;;;;;10.68;4.15;;;10.50;71.40;;;;;;4976335;28;20019;-69
2022/03/20 10:22:37;;;;;;;15.70;4.70;;;10.50;71.10;;;;;;4976223;28;20023;-70
2022/03/20 10:25:04;;;;;;;8.52;3.33;;;10.50;70.40;;;;;;4976161;28;20031;-71
2022/03/20 10:27:29;;;;;;;8.90;2.50;;;10.50;70.80;;;;;;4976254;28;20394;-71
2022/03/20 10:29:58;;;;;;;7.88;2.80;;;10.50;70.10;;;;;;4976443;28;20110;-71
2022/03/20 10:32:25;;;;;;;6.70;2.22;;;10.50;70.00;;;;;;4976189;28;20069;-69
2022/03/20 10:35:00;;;;;;;8.38;2.28;;;10.50;69.90;;;;;;4976361;28;20085;-70
2022/03/20 10:37:44;;;;;;;8.18;2.50;;;10.50;69.90;;;;;;4975675;28;20066;-71
2022/03/20 10:40:12;;;;;;;7.20;1.40;;;10.60;69.40;;;;;;4970129;28;20089;-70
2022/03/20 10:42:38;;;;;;;5.03;1.65;;;10.60;69.60;;;;;;4979314;28;20053;-74
2022/03/20 10:45:07;;;;;;;4.60;1.77;;;10.60;69.00;;;;;;4976153;28;20098;-72
2022/03/20 10:47:33;;;;;;;11.60;1.93;;;10.60;69.20;;;;;;4975643;28;20035;-73
2022/03/20 10:50:09;;;;;;;7.30;1.85;;;10.70;68.30;;;;;;4975961;28;20041;-72
2022/03/20 10:52:36;;;;;;;6.07;1.58;;;10.70;67.80;;;;;;4975628;28;20026;-72
2022/03/20 10:55:10;;;;;;;4.97;1.60;;;10.70;68.00;;;;;;4975878;28;20027;-72
2022/03/20 10:57:36;;;;;;;6.53;2.10;;;10.60;67.50;;;;;;4975466;28;20035;-72
2022/03/20 11:00:08;;;;;;;8.10;1.70;;;10.70;68.30;;;;;;4975482;28;20022;-72
2022/03/20 11:02:37;;;;;;;9.27;2.30;;;10.70;68.40;;;;;;4975704;28;20031;-72
2022/03/20 11:05:04;;;;;;;5.40;1.75;;;10.60;67.80;;;;;;4975809;28;20023;-72
2022/03/20 11:07:30;;;;;;;10.18;1.77;;;10.60;67.90;;;;;;4975240;28;20446;-73
2022/03/20 11:09:56;;;;;;;21.27;1.92;;;10.70;68.40;;;;;;4975414;28;20058;-70
2022/03/20 11:12:24;;;;;;;7.55;2.38;;;10.70;68.70;;;;;;4975216;28;20496;-73
2022/03/20 11:14:51;;;;;;;16.20;1.98;;;10.80;69.10;;;;;;4975313;28;20055;-73
2022/03/20 11:17:21;;;;;;;5.63;1.70;;;10.80;68.60;;;;;;4975098;28;20573;-73
2022/03/20 11:19:52;;;;;;;6.13;1.90;;;10.90;68.10;;;;;;4974234;28;20715;-71
2022/03/20 11:22:21;;;;;;;10.13;2.20;;;10.90;67.70;;;;;;4975438;28;20389;-68
2022/03/20 11:24:49;;;;;;;9.55;2.15;;;10.90;66.90;;;;;;4974961;28;20494;-70
2022/03/20 11:27:28;;;;;;;7.65;2.08;;;10.90;66.30;;;;;;4975288;28;20073;-70
2022/03/20 11:30:04;;;;;;;16.45;2.55;;;11.00;66.80;;;;;;4975096;28;20545;-68
2022/03/20 11:32:30;;;;;;;6.32;1.60;;;11.00;66.20;;;;;;4974815;28;20030;-72
2022/03/20 11:34:56;;;;;;;15.57;2.05;;;11.00;66.20;;;;;;4974825;28;20038;-73
2022/03/20 11:37:22;;;;;;;7.38;1.98;;;11.00;64.90;;;;;;4974389;28;20053;-71
2022/03/20 11:40:14;;;;;;;4.90;1.40;;;11.10;65.40;;;;;;4974409;28;20105;-71
2022/03/20 11:42:41;;;;;;;6.03;1.58;;;11.10;64.50;;;;;;4974917;28;20031;-71
2022/03/20 11:45:06;;;;;;;8.32;1.73;;;11.10;65.90;;;;;;4974695;28;20470;-71
2022/03/20 11:47:35;;;;;;;3.83;1.50;;;11.20;66.20;;;;;;4974808;28;20054;-73
2022/03/20 11:50:10;;;;;;;7.95;1.45;;;11.30;65.90;;;;;;4974307;28;20063;-71
2022/03/20 11:52:58;;;;;;;6.35;1.77;;;11.20;66.40;;;;;;4974314;28;20160;-74
2022/03/20 11:55:40;;;;;;;8.55;1.48;;;11.30;64.30;;;;;;4974565;28;20098;-74
2022/03/20 11:58:22;;;;;;;5.50;1.50;;;11.20;63.30;;;;;;4974646;28;20031;-73
2022/03/20 12:01:05;;;;;;;4.47;1.23;;;11.20;64.00;;;;;;4974416;28;20406;-73
2022/03/20 12:03:54;;;;;;;12.05;1.80;;;11.20;64.10;;;;;;4974436;28;20474;-73
2022/03/20 12:06:42;;;;;;;40.63;3.93;;;11.20;63.90;;;;;;4974447;28;20049;-72
2022/03/20 12:09:10;;;;;;;14.40;2.80;;;11.20;63.60;;;;;;4974210;28;20509;-72
2022/03/20 12:11:51;;;;;;;5.47;1.50;;;11.30;63.60;;;;;;4972918;28;20126;-72
2022/03/20 12:14:40;;;;;;;7.85;1.70;;;11.30;63.20;;;;;;4974268;28;20033;-73
2022/03/20 12:17:10;;;;;;;5.40;1.45;;;11.30;63.60;;;;;;4973915;28;20049;-71
2022/03/20 12:19:36;;;;;;;4.43;1.17;;;11.30;63.30;;;;;;4974251;28;20035;-72
2022/03/20 12:22:07;;;;;;;4.32;1.30;;;11.30;62.50;;;;;;4972812;28;20027;-72
2022/03/20 12:24:36;;;;;;;6.25;1.75;;;11.30;62.50;;;;;;4973870;28;20023;-72
2022/03/20 12:27:22;;;;;;;5.13;1.55;;;11.30;62.50;;;;;;4973933;28;20082;-72
2022/03/20 12:30:16;;;;;;;9.55;2.10;;;11.30;61.80;;;;;;4973670;28;20034;-72
2022/03/20 12:32:48;;;;;;;5.35;1.35;;;11.40;61.80;;;;;;4973754;28;20422;-69
2022/03/20 12:35:14;;;;;;;4.93;1.60;;;11.40;61.10;;;;;;4973789;28;20379;-71
2022/03/20 12:37:42;;;;;;;14.50;2.08;;;11.40;60.90;;;;;;4973112;28;20149;-70
2022/03/20 12:40:16;;;;;;;7.40;1.40;;;11.50;60.20;;;;;;4973685;28;20462;-70
2022/03/20 12:43:08;;;;;;;5.15;1.40;;;11.50;59.70;;;;;;4973743;28;20057;-70
2022/03/20 12:45:36;;;;;;;5.55;1.85;;;11.50;60.00;;;;;;4973436;28;20022;-69
2022/03/20 12:48:07;;;;;;;10.13;1.95;;;11.50;60.20;;;;;;4973513;28;20039;-72
2022/03/20 12:50:37;;;;;;;5.13;1.65;;;11.60;67.90;;;;;;4973458;28;20030;-70
2022/03/20 12:53:05;;;;;;;5.47;1.90;;;12.30;63.30;;;;;;4973791;28;20023;-70
2022/03/20 12:55:31;;;;;;;5.15;1.88;;;12.20;59.20;;;;;;4973314;28;20027;-70
2022/03/20 12:57:57;;;;;;;19.48;3.80;;;12.00;58.60;;;;;;4973429;28;20118;-69
2022/03/20 13:00:31;;;;;;;5.43;1.50;;;11.90;58.60;;;;;;4973292;28;20109;-70
2022/03/20 13:03:03;;;;;;;14.57;2.17;;;11.80;58.50;;;;;;4973376;28;20031;-69
2022/03/20 13:05:45;;;;;;;2.47;1.17;;;11.80;58.30;;;;;;4973436;28;20026;-69
2022/03/20 13:08:21;;;;;;;6.35;1.50;;;11.70;57.40;;;;;;4973632;28;20438;-69
2022/03/20 13:10:47;;;;;;;7.00;1.25;;;11.70;57.90;;;;;;4973145;28;20034;-70
2022/03/20 13:13:16;;;;;;;3.90;1.10;;;11.70;57.90;;;;;;4973270;28;20022;-70
2022/03/20 13:15:42;;;;;;;16.55;1.63;;;11.70;57.50;;;;;;4973337;28;20039;-69
2022/03/20 13:18:09;;;;;;;5.90;1.40;;;11.70;57.50;;;;;;4973173;28;20122;-69
2022/03/20 13:20:38;;;;;;;3.85;1.25;;;11.70;57.70;;;;;;4973406;28;20061;-69
2022/03/20 13:23:07;;;;;;;3.17;1.33;;;12.10;73.50;;;;;;4973250;28;20406;-70
2022/03/20 13:25:40;;;;;;;4.85;1.20;;;12.50;59.70;;;;;;4973021;28;20110;-70
2022/03/20 13:28:06;;;;;;;9.10;1.42;;;12.30;58.30;;;;;;4974875;28;20490;-69
2022/03/20 13:30:35;;;;;;;4.88;1.35;;;12.10;57.90;;;;;;4973258;28;20038;-70
2022/03/20 13:33:01;;;;;;;4.30;1.40;;;12.00;57.90;;;;;;4973226;28;20130;-70
2022/03/20 13:35:27;;;;;;;7.13;1.38;;;11.90;57.50;;;;;;4973412;28;20038;-70
2022/03/20 13:38:01;;;;;;;11.38;2.08;;;11.90;57.00;;;;;;4972683;28;20054;-70
2022/03/20 13:40:31;;;;;;;8.73;1.38;;;11.80;56.50;;;;;;4973111;28;20023;-71
2022/03/20 13:42:57;;;;;;;7.35;1.42;;;11.80;56.90;;;;;;4974321;28;20037;-71
2022/03/20 13:45:25;;;;;;;9.05;1.27;;;11.80;56.90;;;;;;4976865;28;20100;-72
2022/03/20 13:47:52;;;;;;;15.02;2.72;;;11.80;56.10;;;;;;4976525;28;20093;-71
2022/03/20 13:50:18;;;;;;;7.60;1.27;;;11.80;56.50;;;;;;4976245;28;20023;-72
2022/03/20 13:52:46;;;;;;;31.90;1.92;;;11.80;56.20;;;;;;4976310;28;20368;-72
2022/03/20 13:55:21;;;;;;;79.65;6.45;;;11.80;55.80;;;;;;4976540;28;20427;-73
2022/03/20 13:57:56;;;;;;;7.10;1.60;;;11.80;56.10;;;;;;4976439;28;20046;-73
2022/03/20 14:00:40;;;;;;;6.82;1.35;;;11.80;55.80;;;;;;4976904;28;20072;-72
2022/03/20 14:03:07;;;;;;;8.40;1.55;;;11.80;56.00;;;;;;4967304;28;20482;-72
2022/03/20 14:05:35;;;;;;;6.93;1.48;;;11.80;55.70;;;;;;4967770;28;20027;-73
2022/03/20 14:08:15;;;;;;;23.52;2.53;;;11.80;55.50;;;;;;4971065;28;20031;-73
2022/03/20 14:11:05;;;;;;;9.60;1.88;;;11.80;56.00;;;;;;4972077;28;20034;-72
2022/03/20 14:13:32;;;;;;;7.00;2.40;;;11.90;57.90;;;;;;4970965;28;20387;-72
2022/03/20 14:16:07;;;;;;;21.67;3.83;;;11.90;57.10;;;;;;4974459;28;20089;-71
2022/03/20 14:18:42;;;;;;;14.52;4.32;;;11.90;56.60;;;;;;4975652;28;20451;-70